sensor_id;sensor_type;location;lat;lon;timestamp;P1;durP1;ratioP1;P2;durP2;ratioP2
75426;SDS011;64007;50.632;13.700;2023-11-21T00:00:18;4.00;;;1.85;;
75426;SDS011;64007;50.632;13.700;2023-11-21T00:03:05;7.15;;;1.80;;
75426;SDS011;64007;50.632;13.700;2023-11-21T00:05:32;10.38;;;1.70;;
75426;SDS011;64007;50.632;13.700;2023-11-21T00:07:57;10.57;;;1.80;;
75426;SDS011;64007;50.632;13.700;2023-11-21T00:10:23;4.40;;;1.88;;
75426;SDS011;64007;50.632;13.700;2023-11-21T00:12:49;5.57;;;1.58;;
75426;SDS011;64007;50.632;13.700;2023-11-21T00:15:14;4.38;;;1.63;;
75426;SDS011;64007;50.632;13.700;2023-11-21T00:17:41;10.00;;;1.80;;
75426;SDS011;64007;50.632;13.700;2023-11-21T00:20:08;3.40;;;1.48;;
75426;SDS011;64007;50.632;13.700;2023-11-21T00:22:34;6.32;;;2.20;;
75426;SDS011;64007;50.632;13.700;2023-11-21T00:25:00;4.72;;;1.85;;
75426;SDS011;64007;50.632;13.700;2023-11-21T00:27:29;9.63;;;1.70;;
75426;SDS011;64007;50.632;13.700;2023-11-21T00:29:55;4.60;;;1.25;;
75426;SDS011;64007;50.632;13.700;2023-11-21T00:32:21;6.57;;;1.50;;
75426;SDS011;64007;50.632;13.700;2023-11-21T00:34:46;3.15;;;1.45;;
75426;SDS011;64007;50.632;13.700;2023-11-21T00:37:12;7.57;;;2.25;;
75426;SDS011;64007;50.632;13.700;2023-11-21T00:39:38;9.55;;;1.88;;
75426;SDS011;64007;50.632;13.700;2023-11-21T00:42:04;6.97;;;1.67;;
75426;SDS011;64007;50.632;13.700;2023-11-21T00:44:30;10.10;;;1.90;;
75426;SDS011;64007;50.632;13.700;2023-11-21T00:46:56;4.88;;;1.45;;
75426;SDS011;64007;50.632;13.700;2023-11-21T00:49:21;1.38;;;0.80;;
75426;SDS011;64007;50.632;13.700;2023-11-21T00:51:47;4.50;;;1.13;;
75426;SDS011;64007;50.632;13.700;2023-11-21T00:54:13;7.78;;;1.48;;
75426;SDS011;64007;50.632;13.700;2023-11-21T00:56:38;2.58;;;1.40;;
75426;SDS011;64007;50.632;13.700;2023-11-21T00:59:05;3.50;;;1.40;;
75426;SDS011;64007;50.632;13.700;2023-11-21T01:01:31;10.07;;;1.58;;
75426;SDS011;64007;50.632;13.700;2023-11-21T01:03:56;4.28;;;1.58;;
75426;SDS011;64007;50.632;13.700;2023-11-21T01:06:22;2.15;;;1.15;;
75426;SDS011;64007;50.632;13.700;2023-11-21T01:08:48;4.05;;;1.65;;
75426;SDS011;64007;50.632;13.700;2023-11-21T01:11:14;4.13;;;1.45;;
75426;SDS011;64007;50.632;13.700;2023-11-21T01:13:40;5.28;;;1.50;;
75426;SDS011;64007;50.632;13.700;2023-11-21T01:16:07;4.03;;;1.77;;
75426;SDS011;64007;50.632;13.700;2023-11-21T01:18:34;2.85;;;1.45;;
75426;SDS011;64007;50.632;13.700;2023-11-21T01:21:00;5.40;;;1.42;;
75426;SDS011;64007;50.632;13.700;2023-11-21T01:23:26;2.38;;;1.27;;
75426;SDS011;64007;50.632;13.700;2023-11-21T01:25:52;4.15;;;1.25;;
75426;SDS011;64007;50.632;13.700;2023-11-21T01:28:18;3.03;;;1.15;;
75426;SDS011;64007;50.632;13.700;2023-11-21T01:30:45;8.13;;;0.98;;
75426;SDS011;64007;50.632;13.700;2023-11-21T01:33:11;3.47;;;0.90;;
75426;SDS011;64007;50.632;13.700;2023-11-21T01:35:37;2.17;;;0.82;;
75426;SDS011;64007;50.632;13.700;2023-11-21T01:38:03;2.70;;;0.90;;
75426;SDS011;64007;50.632;13.700;2023-11-21T01:40:29;1.42;;;0.80;;
75426;SDS011;64007;50.632;13.700;2023-11-21T01:42:55;1.52;;;0.90;;
75426;SDS011;64007;50.632;13.700;2023-11-21T01:45:22;4.95;;;1.00;;
75426;SDS011;64007;50.632;13.700;2023-11-21T01:47:50;6.35;;;1.00;;
75426;SDS011;64007;50.632;13.700;2023-11-21T01:50:16;2.30;;;1.15;;
75426;SDS011;64007;50.632;13.700;2023-11-21T01:52:46;2.17;;;0.93;;
75426;SDS011;64007;50.632;13.700;2023-11-21T01:55:14;3.47;;;1.02;;
75426;SDS011;64007;50.632;13.700;2023-11-21T01:57:43;3.10;;;1.10;;
75426;SDS011;64007;50.632;13.700;2023-11-21T02:00:11;6.05;;;1.13;;
75426;SDS011;64007;50.632;13.700;2023-11-21T02:02:47;1.60;;;0.98;;
75426;SDS011;64007;50.632;13.700;2023-11-21T02:05:14;6.00;;;1.00;;
75426;SDS011;64007;50.632;13.700;2023-11-21T02:07:42;3.40;;;1.05;;
75426;SDS011;64007;50.632;13.700;2023-11-21T02:10:08;3.17;;;1.05;;
75426;SDS011;64007;50.632;13.700;2023-11-21T02:12:34;11.55;;;1.20;;
75426;SDS011;64007;50.632;13.700;2023-11-21T02:15:02;5.90;;;1.17;;
75426;SDS011;64007;50.632;13.700;2023-11-21T02:17:30;8.27;;;0.95;;
75426;SDS011;64007;50.632;13.700;2023-11-21T02:19:58;1.17;;;0.82;;
75426;SDS011;64007;50.632;13.700;2023-11-21T02:22:25;5.95;;;1.17;;
75426;SDS011;64007;50.632;13.700;2023-11-21T02:24:56;3.03;;;1.13;;
75426;SDS011;64007;50.632;13.700;2023-11-21T02:27:23;2.20;;;1.02;;
75426;SDS011;64007;50.632;13.700;2023-11-21T02:29:49;5.68;;;1.13;;
75426;SDS011;64007;50.632;13.700;2023-11-21T02:32:15;8.52;;;1.00;;
75426;SDS011;64007;50.632;13.700;2023-11-21T02:34:44;7.38;;;1.13;;
75426;SDS011;64007;50.632;13.700;2023-11-21T02:37:10;1.90;;;0.77;;
75426;SDS011;64007;50.632;13.700;2023-11-21T02:39:36;1.02;;;0.50;;
75426;SDS011;64007;50.632;13.700;2023-11-21T02:42:01;2.33;;;0.60;;
75426;SDS011;64007;50.632;13.700;2023-11-21T02:44:27;4.00;;;0.63;;
75426;SDS011;64007;50.632;13.700;2023-11-21T02:46:53;0.73;;;0.50;;
75426;SDS011;64007;50.632;13.700;2023-11-21T02:49:19;3.28;;;0.80;;
75426;SDS011;64007;50.632;13.700;2023-11-21T02:51:44;3.15;;;0.50;;
75426;SDS011;64007;50.632;13.700;2023-11-21T02:54:10;1.58;;;0.47;;
75426;SDS011;64007;50.632;13.700;2023-11-21T02:56:36;5.05;;;0.70;;
75426;SDS011;64007;50.632;13.700;2023-11-21T02:59:03;4.03;;;0.70;;
75426;SDS011;64007;50.632;13.700;2023-11-21T03:01:28;4.55;;;0.73;;
75426;SDS011;64007;50.632;13.700;2023-11-21T03:03:54;3.13;;;0.77;;
75426;SDS011;64007;50.632;13.700;2023-11-21T03:06:21;1.67;;;0.70;;
75426;SDS011;64007;50.632;13.700;2023-11-21T03:08:46;2.95;;;0.80;;
75426;SDS011;64007;50.632;13.700;2023-11-21T03:11:13;0.95;;;0.60;;
75426;SDS011;64007;50.632;13.700;2023-11-21T03:13:39;1.00;;;0.68;;
75426;SDS011;64007;50.632;13.700;2023-11-21T03:16:09;3.15;;;0.73;;
75426;SDS011;64007;50.632;13.700;2023-11-21T03:18:38;2.85;;;0.85;;
75426;SDS011;64007;50.632;13.700;2023-11-21T03:21:04;5.22;;;0.85;;
75426;SDS011;64007;50.632;13.700;2023-11-21T03:23:31;4.20;;;0.98;;
75426;SDS011;64007;50.632;13.700;2023-11-21T03:25:57;1.80;;;0.82;;
75426;SDS011;64007;50.632;13.700;2023-11-21T03:28:25;5.65;;;0.80;;
75426;SDS011;64007;50.632;13.700;2023-11-21T03:30:52;1.48;;;0.80;;
75426;SDS011;64007;50.632;13.700;2023-11-21T03:33:18;5.40;;;1.10;;
75426;SDS011;64007;50.632;13.700;2023-11-21T03:35:43;1.15;;;0.68;;
75426;SDS011;64007;50.632;13.700;2023-11-21T03:38:10;1.70;;;0.70;;
75426;SDS011;64007;50.632;13.700;2023-11-21T03:40:36;1.65;;;0.80;;
75426;SDS011;64007;50.632;13.700;2023-11-21T03:43:01;2.15;;;0.77;;
75426;SDS011;64007;50.632;13.700;2023-11-21T03:45:27;3.35;;;1.00;;
75426;SDS011;64007;50.632;13.700;2023-11-21T03:47:53;10.60;;;1.00;;
75426;SDS011;64007;50.632;13.700;2023-11-21T03:50:19;3.10;;;1.10;;
75426;SDS011;64007;50.632;13.700;2023-11-21T03:52:45;2.78;;;0.98;;
75426;SDS011;64007;50.632;13.700;2023-11-21T03:55:10;4.55;;;2.05;;
75426;SDS011;64007;50.632;13.700;2023-11-21T03:57:36;3.78;;;1.10;;
75426;SDS011;64007;50.632;13.700;2023-11-21T04:00:02;6.65;;;0.75;;
75426;SDS011;64007;50.632;13.700;2023-11-21T04:02:29;2.90;;;0.90;;
75426;SDS011;64007;50.632;13.700;2023-11-21T04:04:56;1.05;;;0.60;;
75426;SDS011;64007;50.632;13.700;2023-11-21T04:07:23;1.77;;;0.57;;
75426;SDS011;64007;50.632;13.700;2023-11-21T04:09:48;2.65;;;0.80;;
75426;SDS011;64007;50.632;13.700;2023-11-21T04:12:14;2.05;;;0.80;;
75426;SDS011;64007;50.632;13.700;2023-11-21T04:14:40;0.57;;;0.45;;
75426;SDS011;64007;50.632;13.700;2023-11-21T04:17:06;9.55;;;0.80;;
75426;SDS011;64007;50.632;13.700;2023-11-21T04:19:31;1.25;;;0.45;;
75426;SDS011;64007;50.632;13.700;2023-11-21T04:21:57;4.63;;;0.98;;
75426;SDS011;64007;50.632;13.700;2023-11-21T04:24:23;1.08;;;0.68;;
75426;SDS011;64007;50.632;13.700;2023-11-21T04:26:49;1.00;;;0.70;;
75426;SDS011;64007;50.632;13.700;2023-11-21T04:29:14;6.82;;;1.00;;
75426;SDS011;64007;50.632;13.700;2023-11-21T04:31:40;1.15;;;0.65;;
75426;SDS011;64007;50.632;13.700;2023-11-21T04:34:06;1.10;;;0.70;;
75426;SDS011;64007;50.632;13.700;2023-11-21T04:36:32;4.85;;;0.82;;
75426;SDS011;64007;50.632;13.700;2023-11-21T04:38:58;11.60;;;1.05;;
75426;SDS011;64007;50.632;13.700;2023-11-21T04:41:24;3.95;;;0.60;;
75426;SDS011;64007;50.632;13.700;2023-11-21T04:43:49;2.80;;;0.70;;
75426;SDS011;64007;50.632;13.700;2023-11-21T04:46:15;3.45;;;0.80;;
75426;SDS011;64007;50.632;13.700;2023-11-21T04:48:41;0.90;;;0.70;;
75426;SDS011;64007;50.632;13.700;2023-11-21T04:51:06;2.33;;;0.82;;
75426;SDS011;64007;50.632;13.700;2023-11-21T04:53:32;4.78;;;1.02;;
75426;SDS011;64007;50.632;13.700;2023-11-21T04:55:58;2.47;;;0.90;;
75426;SDS011;64007;50.632;13.700;2023-11-21T04:58:24;7.05;;;1.30;;
75426;SDS011;64007;50.632;13.700;2023-11-21T05:00:49;2.70;;;0.52;;
75426;SDS011;64007;50.632;13.700;2023-11-21T05:03:15;0.98;;;0.60;;
75426;SDS011;64007;50.632;13.700;2023-11-21T05:05:41;8.68;;;1.10;;
75426;SDS011;64007;50.632;13.700;2023-11-21T05:08:07;4.85;;;1.05;;
75426;SDS011;64007;50.632;13.700;2023-11-21T05:10:33;2.67;;;0.73;;
75426;SDS011;64007;50.632;13.700;2023-11-21T05:12:59;5.45;;;0.80;;
75426;SDS011;64007;50.632;13.700;2023-11-21T05:15:25;4.55;;;1.20;;
75426;SDS011;64007;50.632;13.700;2023-11-21T05:17:52;9.73;;;1.25;;
75426;SDS011;64007;50.632;13.700;2023-11-21T05:20:19;7.78;;;0.80;;
75426;SDS011;64007;50.632;13.700;2023-11-21T05:22:46;7.28;;;0.95;;
75426;SDS011;64007;50.632;13.700;2023-11-21T05:25:13;2.30;;;0.80;;
75426;SDS011;64007;50.632;13.700;2023-11-21T05:27:39;3.38;;;0.93;;
75426;SDS011;64007;50.632;13.700;2023-11-21T05:30:05;2.20;;;0.60;;
75426;SDS011;64007;50.632;13.700;2023-11-21T05:32:32;1.88;;;0.85;;
75426;SDS011;64007;50.632;13.700;2023-11-21T05:34:58;2.70;;;0.80;;
75426;SDS011;64007;50.632;13.700;2023-11-21T05:37:24;2.33;;;1.08;;
75426;SDS011;64007;50.632;13.700;2023-11-21T05:39:55;4.10;;;0.95;;
75426;SDS011;64007;50.632;13.700;2023-11-21T05:42:22;3.45;;;0.90;;
75426;SDS011;64007;50.632;13.700;2023-11-21T05:44:49;2.92;;;1.05;;
75426;SDS011;64007;50.632;13.700;2023-11-21T05:47:14;7.68;;;1.00;;
75426;SDS011;64007;50.632;13.700;2023-11-21T05:49:40;8.80;;;1.05;;
75426;SDS011;64007;50.632;13.700;2023-11-21T05:52:06;3.30;;;1.35;;
75426;SDS011;64007;50.632;13.700;2023-11-21T05:54:32;2.95;;;1.00;;
75426;SDS011;64007;50.632;13.700;2023-11-21T05:56:58;9.05;;;1.15;;
75426;SDS011;64007;50.632;13.700;2023-11-21T05:59:24;3.90;;;0.93;;
75426;SDS011;64007;50.632;13.700;2023-11-21T06:01:50;3.10;;;1.20;;
75426;SDS011;64007;50.632;13.700;2023-11-21T06:04:15;3.20;;;0.98;;
75426;SDS011;64007;50.632;13.700;2023-11-21T06:06:41;1.92;;;0.90;;
75426;SDS011;64007;50.632;13.700;2023-11-21T06:09:07;2.83;;;0.93;;
75426;SDS011;64007;50.632;13.700;2023-11-21T06:11:34;2.85;;;0.90;;
75426;SDS011;64007;50.632;13.700;2023-11-21T06:14:01;3.28;;;1.10;;
75426;SDS011;64007;50.632;13.700;2023-11-21T06:16:27;2.88;;;1.00;;
75426;SDS011;64007;50.632;13.700;2023-11-21T06:18:53;2.25;;;1.02;;
75426;SDS011;64007;50.632;13.700;2023-11-21T06:21:18;4.03;;;1.08;;
75426;SDS011;64007;50.632;13.700;2023-11-21T06:23:44;4.13;;;1.13;;
75426;SDS011;64007;50.632;13.700;2023-11-21T06:26:10;2.75;;;1.10;;
75426;SDS011;64007;50.632;13.700;2023-11-21T06:28:36;3.47;;;1.33;;
75426;SDS011;64007;50.632;13.700;2023-11-21T06:31:02;4.57;;;1.20;;
75426;SDS011;64007;50.632;13.700;2023-11-21T06:33:33;3.53;;;1.33;;
75426;SDS011;64007;50.632;13.700;2023-11-21T06:35:59;1.83;;;1.10;;
75426;SDS011;64007;50.632;13.700;2023-11-21T06:38:28;3.22;;;1.13;;
75426;SDS011;64007;50.632;13.700;2023-11-21T06:40:58;5.43;;;1.40;;
75426;SDS011;64007;50.632;13.700;2023-11-21T06:43:28;7.22;;;1.90;;
75426;SDS011;64007;50.632;13.700;2023-11-21T06:45:53;4.63;;;1.75;;
75426;SDS011;64007;50.632;13.700;2023-11-21T06:48:20;9.77;;;1.67;;
75426;SDS011;64007;50.632;13.700;2023-11-21T06:50:45;9.07;;;2.00;;
75426;SDS011;64007;50.632;13.700;2023-11-21T06:53:12;5.60;;;1.60;;
75426;SDS011;64007;50.632;13.700;2023-11-21T06:55:38;7.20;;;1.70;;
75426;SDS011;64007;50.632;13.700;2023-11-21T06:58:04;7.80;;;1.90;;
75426;SDS011;64007;50.632;13.700;2023-11-21T07:00:30;3.30;;;1.33;;
75426;SDS011;64007;50.632;13.700;2023-11-21T07:02:56;3.63;;;1.10;;
75426;SDS011;64007;50.632;13.700;2023-11-21T07:05:22;7.65;;;1.83;;
75426;SDS011;64007;50.632;13.700;2023-11-21T07:07:48;8.73;;;1.85;;
75426;SDS011;64007;50.632;13.700;2023-11-21T07:10:15;2.88;;;1.65;;
75426;SDS011;64007;50.632;13.700;2023-11-21T07:12:41;6.65;;;1.70;;
75426;SDS011;64007;50.632;13.700;2023-11-21T07:15:07;4.05;;;1.42;;
75426;SDS011;64007;50.632;13.700;2023-11-21T07:17:35;7.75;;;2.00;;
75426;SDS011;64007;50.632;13.700;2023-11-21T07:20:01;8.10;;;1.73;;
75426;SDS011;64007;50.632;13.700;2023-11-21T07:22:27;4.25;;;1.60;;
75426;SDS011;64007;50.632;13.700;2023-11-21T07:24:53;8.10;;;1.65;;
75426;SDS011;64007;50.632;13.700;2023-11-21T07:27:19;7.88;;;1.73;;
75426;SDS011;64007;50.632;13.700;2023-11-21T07:29:45;7.55;;;1.95;;
75426;SDS011;64007;50.632;13.700;2023-11-21T07:32:10;6.90;;;2.30;;
75426;SDS011;64007;50.632;13.700;2023-11-21T07:34:38;7.60;;;2.17;;
75426;SDS011;64007;50.632;13.700;2023-11-21T07:37:04;4.40;;;2.38;;
75426;SDS011;64007;50.632;13.700;2023-11-21T07:39:29;7.15;;;2.25;;
75426;SDS011;64007;50.632;13.700;2023-11-21T07:41:55;7.05;;;2.05;;
75426;SDS011;64007;50.632;13.700;2023-11-21T07:44:23;5.68;;;2.20;;
75426;SDS011;64007;50.632;13.700;2023-11-21T07:46:49;11.57;;;2.78;;
75426;SDS011;64007;50.632;13.700;2023-11-21T07:49:15;5.40;;;2.38;;
75426;SDS011;64007;50.632;13.700;2023-11-21T07:51:43;4.55;;;2.10;;
75426;SDS011;64007;50.632;13.700;2023-11-21T07:54:09;7.40;;;2.92;;
75426;SDS011;64007;50.632;13.700;2023-11-21T07:56:35;7.90;;;1.90;;
75426;SDS011;64007;50.632;13.700;2023-11-21T07:59:01;5.88;;;1.83;;
75426;SDS011;64007;50.632;13.700;2023-11-21T08:01:27;8.15;;;1.95;;
75426;SDS011;64007;50.632;13.700;2023-11-21T08:03:53;3.42;;;1.63;;
75426;SDS011;64007;50.632;13.700;2023-11-21T08:06:23;11.15;;;2.15;;
75426;SDS011;64007;50.632;13.700;2023-11-21T08:08:49;6.35;;;2.72;;
75426;SDS011;64007;50.632;13.700;2023-11-21T08:11:15;12.98;;;2.00;;
75426;SDS011;64007;50.632;13.700;2023-11-21T08:13:41;4.93;;;2.00;;
75426;SDS011;64007;50.632;13.700;2023-11-21T08:16:07;11.10;;;2.40;;
75426;SDS011;64007;50.632;13.700;2023-11-21T08:18:33;10.15;;;2.83;;
75426;SDS011;64007;50.632;13.700;2023-11-21T08:20:59;14.52;;;3.35;;
75426;SDS011;64007;50.632;13.700;2023-11-21T08:23:25;8.18;;;3.33;;
75426;SDS011;64007;50.632;13.700;2023-11-21T08:25:52;3.75;;;1.98;;
75426;SDS011;64007;50.632;13.700;2023-11-21T08:28:18;5.07;;;2.22;;
75426;SDS011;64007;50.632;13.700;2023-11-21T08:30:44;10.60;;;2.58;;
75426;SDS011;64007;50.632;13.700;2023-11-21T08:33:10;8.32;;;3.30;;
75426;SDS011;64007;50.632;13.700;2023-11-21T08:35:37;7.22;;;2.60;;
75426;SDS011;64007;50.632;13.700;2023-11-21T08:38:03;6.47;;;2.50;;
75426;SDS011;64007;50.632;13.700;2023-11-21T08:40:30;7.15;;;2.55;;
75426;SDS011;64007;50.632;13.700;2023-11-21T08:42:56;9.27;;;2.13;;
75426;SDS011;64007;50.632;13.700;2023-11-21T08:45:24;6.18;;;2.33;;
75426;SDS011;64007;50.632;13.700;2023-11-21T08:47:51;8.43;;;2.33;;
75426;SDS011;64007;50.632;13.700;2023-11-21T08:50:17;7.05;;;2.13;;
75426;SDS011;64007;50.632;13.700;2023-11-21T08:52:44;5.05;;;1.70;;
75426;SDS011;64007;50.632;13.700;2023-11-21T08:55:11;7.20;;;2.25;;
75426;SDS011;64007;50.632;13.700;2023-11-21T08:57:40;9.60;;;1.63;;
75426;SDS011;64007;50.632;13.700;2023-11-21T09:00:08;7.85;;;2.40;;
75426;SDS011;64007;50.632;13.700;2023-11-21T09:02:37;5.47;;;2.30;;
75426;SDS011;64007;50.632;13.700;2023-11-21T09:05:05;10.20;;;2.17;;
75426;SDS011;64007;50.632;13.700;2023-11-21T09:07:30;6.32;;;2.00;;
75426;SDS011;64007;50.632;13.700;2023-11-21T09:09:57;8.77;;;2.25;;
75426;SDS011;64007;50.632;13.700;2023-11-21T09:12:22;6.38;;;2.20;;
75426;SDS011;64007;50.632;13.700;2023-11-21T09:14:50;6.53;;;1.70;;
75426;SDS011;64007;50.632;13.700;2023-11-21T09:17:16;9.48;;;2.92;;
75426;SDS011;64007;50.632;13.700;2023-11-21T09:19:42;12.43;;;2.50;;
75426;SDS011;64007;50.632;13.700;2023-11-21T09:22:15;10.88;;;2.00;;
75426;SDS011;64007;50.632;13.700;2023-11-21T09:24:41;5.03;;;1.65;;
75426;SDS011;64007;50.632;13.700;2023-11-21T09:27:07;8.20;;;2.20;;
75426;SDS011;64007;50.632;13.700;2023-11-21T09:29:35;7.75;;;3.85;;
75426;SDS011;64007;50.632;13.700;2023-11-21T09:32:04;7.50;;;2.90;;
75426;SDS011;64007;50.632;13.700;2023-11-21T09:34:33;7.00;;;2.40;;
75426;SDS011;64007;50.632;13.700;2023-11-21T09:37:06;9.50;;;3.88;;
75426;SDS011;64007;50.632;13.700;2023-11-21T09:39:33;7.15;;;2.67;;
75426;SDS011;64007;50.632;13.700;2023-11-21T09:42:07;8.45;;;1.90;;
75426;SDS011;64007;50.632;13.700;2023-11-21T09:44:39;4.32;;;2.30;;
75426;SDS011;64007;50.632;13.700;2023-11-21T09:47:11;11.25;;;4.55;;
75426;SDS011;64007;50.632;13.700;2023-11-21T09:49:47;12.02;;;3.45;;
75426;SDS011;64007;50.632;13.700;2023-11-21T09:52:32;3.65;;;2.30;;
75426;SDS011;64007;50.632;13.700;2023-11-21T09:55:08;5.60;;;2.30;;
75426;SDS011;64007;50.632;13.700;2023-11-21T09:57:38;7.85;;;2.83;;
75426;SDS011;64007;50.632;13.700;2023-11-21T10:00:04;4.60;;;2.67;;
75426;SDS011;64007;50.632;13.700;2023-11-21T10:02:36;3.35;;;2.17;;
75426;SDS011;64007;50.632;13.700;2023-11-21T10:05:06;11.07;;;4.30;;
75426;SDS011;64007;50.632;13.700;2023-11-21T10:07:34;10.10;;;3.42;;
75426;SDS011;64007;50.632;13.700;2023-11-21T10:10:00;7.80;;;2.65;;
75426;SDS011;64007;50.632;13.700;2023-11-21T10:12:27;6.57;;;2.30;;
75426;SDS011;64007;50.632;13.700;2023-11-21T10:14:54;8.43;;;4.90;;
75426;SDS011;64007;50.632;13.700;2023-11-21T10:17:22;5.93;;;2.28;;
75426;SDS011;64007;50.632;13.700;2023-11-21T10:19:51;5.10;;;3.45;;
75426;SDS011;64007;50.632;13.700;2023-11-21T10:22:19;4.47;;;2.20;;
75426;SDS011;64007;50.632;13.700;2023-11-21T10:24:46;9.48;;;4.03;;
75426;SDS011;64007;50.632;13.700;2023-11-21T10:27:11;8.60;;;3.90;;
75426;SDS011;64007;50.632;13.700;2023-11-21T10:29:41;3.75;;;1.52;;
75426;SDS011;64007;50.632;13.700;2023-11-21T10:32:07;3.28;;;2.05;;
75426;SDS011;64007;50.632;13.700;2023-11-21T10:34:33;4.25;;;1.80;;
75426;SDS011;64007;50.632;13.700;2023-11-21T10:36:58;3.40;;;1.90;;
75426;SDS011;64007;50.632;13.700;2023-11-21T10:39:36;4.43;;;2.13;;
75426;SDS011;64007;50.632;13.700;2023-11-21T10:42:01;7.40;;;2.33;;
75426;SDS011;64007;50.632;13.700;2023-11-21T10:44:27;3.80;;;1.70;;
75426;SDS011;64007;50.632;13.700;2023-11-21T10:46:54;4.63;;;1.90;;
75426;SDS011;64007;50.632;13.700;2023-11-21T10:49:25;2.70;;;1.63;;
75426;SDS011;64007;50.632;13.700;2023-11-21T10:51:53;1.90;;;1.15;;
75426;SDS011;64007;50.632;13.700;2023-11-21T10:54:20;4.95;;;3.00;;
75426;SDS011;64007;50.632;13.700;2023-11-21T10:56:50;3.33;;;1.70;;
75426;SDS011;64007;50.632;13.700;2023-11-21T10:59:30;2.17;;;1.25;;
75426;SDS011;64007;50.632;13.700;2023-11-21T11:01:57;2.70;;;1.40;;
75426;SDS011;64007;50.632;13.700;2023-11-21T11:04:24;2.95;;;1.00;;
75426;SDS011;64007;50.632;13.700;2023-11-21T11:07:00;1.02;;;0.70;;
75426;SDS011;64007;50.632;13.700;2023-11-21T11:09:28;0.60;;;0.50;;
75426;SDS011;64007;50.632;13.700;2023-11-21T11:11:57;2.30;;;1.15;;
75426;SDS011;64007;50.632;13.700;2023-11-21T11:14:24;0.80;;;0.70;;
75426;SDS011;64007;50.632;13.700;2023-11-21T11:16:52;2.42;;;1.02;;
75426;SDS011;64007;50.632;13.700;2023-11-21T11:19:20;3.97;;;1.20;;
75426;SDS011;64007;50.632;13.700;2023-11-21T11:21:53;4.32;;;1.33;;
75426;SDS011;64007;50.632;13.700;2023-11-21T11:24:49;2.20;;;1.55;;
75426;SDS011;64007;50.632;13.700;2023-11-21T11:38:22;0.90;;;0.70;;
75426;SDS011;64007;50.632;13.700;2023-11-21T11:40:54;1.77;;;1.05;;
75426;SDS011;64007;50.632;13.700;2023-11-21T11:43:26;2.22;;;1.25;;
75426;SDS011;64007;50.632;13.700;2023-11-21T11:48:21;0.60;;;0.50;;
75426;SDS011;64007;50.632;13.700;2023-11-21T11:51:03;0.63;;;0.60;;
75426;SDS011;64007;50.632;13.700;2023-11-21T11:58:54;1.05;;;0.70;;
75426;SDS011;64007;50.632;13.700;2023-11-21T12:01:22;0.70;;;0.50;;
75426;SDS011;64007;50.632;13.700;2023-11-21T12:07:00;0.70;;;0.40;;
75426;SDS011;64007;50.632;13.700;2023-11-21T12:09:28;0.75;;;0.50;;
75426;SDS011;64007;50.632;13.700;2023-11-21T12:11:56;0.98;;;0.50;;
75426;SDS011;64007;50.632;13.700;2023-11-21T12:14:22;0.75;;;0.60;;
75426;SDS011;64007;50.632;13.700;2023-11-21T12:16:48;0.75;;;0.30;;
75426;SDS011;64007;50.632;13.700;2023-11-21T12:19:14;0.40;;;0.10;;
75426;SDS011;64007;50.632;13.700;2023-11-21T12:21:40;0.75;;;0.22;;
75426;SDS011;64007;50.632;13.700;2023-11-21T12:24:07;0.20;;;0.20;;
75426;SDS011;64007;50.632;13.700;2023-11-21T12:26:34;0.47;;;0.10;;
75426;SDS011;64007;50.632;13.700;2023-11-21T12:29:01;0.08;;;0.08;;
75426;SDS011;64007;50.632;13.700;2023-11-21T12:31:30;0.20;;;0.20;;
75426;SDS011;64007;50.632;13.700;2023-11-21T12:33:56;0.10;;;0.10;;
75426;SDS011;64007;50.632;13.700;2023-11-21T12:36:23;0.98;;;0.28;;
75426;SDS011;64007;50.632;13.700;2023-11-21T12:38:50;0.10;;;0.10;;
75426;SDS011;64007;50.632;13.700;2023-11-21T12:41:16;0.30;;;0.30;;
75426;SDS011;64007;50.632;13.700;2023-11-21T12:43:42;0.08;;;0.08;;
75426;SDS011;64007;50.632;13.700;2023-11-21T12:46:09;0.20;;;0.10;;
75426;SDS011;64007;50.632;13.700;2023-11-21T12:48:39;0.35;;;0.20;;
75426;SDS011;64007;50.632;13.700;2023-11-21T12:51:10;0.52;;;0.30;;
75426;SDS011;64007;50.632;13.700;2023-11-21T12:53:37;0.65;;;0.20;;
75426;SDS011;64007;50.632;13.700;2023-11-21T12:56:10;0.10;;;0.08;;
75426;SDS011;64007;50.632;13.700;2023-11-21T12:58:39;0.25;;;0.20;;
75426;SDS011;64007;50.632;13.700;2023-11-21T13:01:10;0.47;;;0.28;;
75426;SDS011;64007;50.632;13.700;2023-11-21T13:03:43;0.85;;;0.20;;
75426;SDS011;64007;50.632;13.700;2023-11-21T13:06:11;0.38;;;0.20;;
75426;SDS011;64007;50.632;13.700;2023-11-21T13:08:38;0.30;;;0.30;;
75426;SDS011;64007;50.632;13.700;2023-11-21T13:11:04;2.35;;;0.60;;
75426;SDS011;64007;50.632;13.700;2023-11-21T13:13:31;0.38;;;0.38;;
75426;SDS011;64007;50.632;13.700;2023-11-21T13:16:01;0.90;;;0.60;;
75426;SDS011;64007;50.632;13.700;2023-11-21T13:18:30;0.60;;;0.50;;
75426;SDS011;64007;50.632;13.700;2023-11-21T13:21:00;1.38;;;0.77;;
75426;SDS011;64007;50.632;13.700;2023-11-21T13:23:34;0.90;;;0.60;;
75426;SDS011;64007;50.632;13.700;2023-11-21T13:26:01;1.27;;;0.60;;
75426;SDS011;64007;50.632;13.700;2023-11-21T13:28:29;1.20;;;0.80;;
75426;SDS011;64007;50.632;13.700;2023-11-21T13:31:00;0.85;;;0.60;;
75426;SDS011;64007;50.632;13.700;2023-11-21T13:33:46;1.60;;;0.77;;
75426;SDS011;64007;50.632;13.700;2023-11-21T13:36:21;0.90;;;0.63;;
75426;SDS011;64007;50.632;13.700;2023-11-21T13:38:51;1.65;;;1.08;;
75426;SDS011;64007;50.632;13.700;2023-11-21T13:43:53;2.75;;;1.13;;
75426;SDS011;64007;50.632;13.700;2023-11-21T13:46:24;4.15;;;0.98;;
75426;SDS011;64007;50.632;13.700;2023-11-21T13:48:50;2.20;;;1.10;;
75426;SDS011;64007;50.632;13.700;2023-11-21T13:51:21;2.30;;;0.82;;
75426;SDS011;64007;50.632;13.700;2023-11-21T13:53:55;1.77;;;0.77;;
75426;SDS011;64007;50.632;13.700;2023-11-21T13:56:22;1.67;;;0.85;;
75426;SDS011;64007;50.632;13.700;2023-11-21T13:58:49;1.10;;;0.80;;
75426;SDS011;64007;50.632;13.700;2023-11-21T14:01:19;1.40;;;0.90;;
75426;SDS011;64007;50.632;13.700;2023-11-21T14:03:57;1.92;;;0.88;;
75426;SDS011;64007;50.632;13.700;2023-11-21T14:06:45;4.50;;;0.80;;
75426;SDS011;64007;50.632;13.700;2023-11-21T14:09:15;0.50;;;0.50;;
75426;SDS011;64007;50.632;13.700;2023-11-21T14:11:51;1.00;;;0.63;;
75426;SDS011;64007;50.632;13.700;2023-11-21T14:14:22;1.10;;;0.50;;
75426;SDS011;64007;50.632;13.700;2023-11-21T14:16:50;1.55;;;0.50;;
75426;SDS011;64007;50.632;13.700;2023-11-21T14:19:24;1.73;;;0.70;;
75426;SDS011;64007;50.632;13.700;2023-11-21T14:21:55;0.47;;;0.40;;
75426;SDS011;64007;50.632;13.700;2023-11-21T14:24:21;1.55;;;0.50;;
75426;SDS011;64007;50.632;13.700;2023-11-21T14:26:49;4.28;;;0.50;;
75426;SDS011;64007;50.632;13.700;2023-11-21T14:29:15;1.30;;;0.70;;
75426;SDS011;64007;50.632;13.700;2023-11-21T14:31:46;0.28;;;0.28;;
75426;SDS011;64007;50.632;13.700;2023-11-21T14:34:12;1.45;;;0.50;;
75426;SDS011;64007;50.632;13.700;2023-11-21T14:36:39;0.32;;;0.32;;
75426;SDS011;64007;50.632;13.700;2023-11-21T14:39:05;0.65;;;0.40;;
75426;SDS011;64007;50.632;13.700;2023-11-21T14:41:41;0.85;;;0.50;;
75426;SDS011;64007;50.632;13.700;2023-11-21T14:44:09;2.70;;;1.63;;
75426;SDS011;64007;50.632;13.700;2023-11-21T14:46:38;2.50;;;0.82;;
75426;SDS011;64007;50.632;13.700;2023-11-21T14:49:05;0.80;;;0.50;;
75426;SDS011;64007;50.632;13.700;2023-11-21T14:51:48;0.70;;;0.45;;
75426;SDS011;64007;50.632;13.700;2023-11-21T14:54:20;1.17;;;0.60;;
75426;SDS011;64007;50.632;13.700;2023-11-21T14:57:02;2.05;;;1.02;;
75426;SDS011;64007;50.632;13.700;2023-11-21T14:59:28;3.85;;;0.77;;